»·PEaware :: N902SQ KAPA-KLAS

N902SQ :: KAPA-KLAS

FLIGHT INFORMATION

Flight Status: Arrived
Operator: Privately registered:
United States
More flights under this callsign
Pilot: Gabor H. (24209)
Aircraft: SOCATA TBM-900
(TBM9)
More flights by this aircraft type
Origin: KAPA Centennial
United States
Destination: KLAS Harry Reid Intl
United States
More flights between these airports :: More routes between these airports
Route: ROCKI5 DBL J60 BCE V8 MEADS V562 LAS
File this flight plan on PilotEdge
Remarks:
Altitude:
(Current/Filed)
30,000ft
Speed:
(Current/Filed)
315kts
Departed: 28-Sep-23 09:53 AM
Arrived: 28-Sep-23 11:56 AM
Distance/Time
Traveled:
532nm/2:02
Distance/Time
To Go:
Arrived

Flight Plot

Page will automatically refresh every two minutes.

Flight plan parsing failed; only flown route is shown


Map Options




Map Legend


Flown Route
Filed Route
Departure Airport
Arrival Airport
Navaid (VOR, NDB)
Fix

Horizontal Profiles

Position Reports

Time Latitude Longitude Heading Altitude Ground
Speed
28-Sep-23 09:35 39.568382 -104.847900 182 5887ft 0kts
28-Sep-23 09:36 39.568382 -104.847900 182 5887ft 0kts
28-Sep-23 09:37 39.568382 -104.847900 182 5887ft 0kts
28-Sep-23 09:38 39.568382 -104.847900 182 5887ft 0kts
28-Sep-23 09:39 39.568382 -104.847900 182 5887ft 0kts
28-Sep-23 09:40 39.568382 -104.847900 182 5887ft 0kts
28-Sep-23 09:41 39.568382 -104.847900 182 5887ft 0kts
28-Sep-23 09:42 39.568382 -104.847900 182 5887ft 0kts
28-Sep-23 09:43 39.568382 -104.847900 182 5887ft 0kts
28-Sep-23 09:44 39.568382 -104.847900 182 5887ft 0kts
28-Sep-23 09:45 39.568382 -104.847900 182 5887ft 0kts
28-Sep-23 09:46 39.568382 -104.847900 182 5887ft 0kts
28-Sep-23 09:47 39.568076 -104.848061 249 5887ft 7kts
28-Sep-23 09:48 39.570994 -104.849455 358 5887ft 16kts
28-Sep-23 09:49 39.576174 -104.849721 356 5887ft 20kts
28-Sep-23 09:50 39.582126 -104.849974 356 5887ft 22kts
28-Sep-23 09:51 39.584034 -104.850181 305 5887ft 0kts
28-Sep-23 09:52 39.578323 -104.851229 178 5887ft 100kts
28-Sep-23 09:53 39.535909 -104.849612 186 6906ft 189kts
28-Sep-23 09:54 39.532466 -104.907340 297 8330ft 200kts
28-Sep-23 09:55 39.558100 -104.972459 297 9745ft 208kts
28-Sep-23 09:56 39.598251 -105.022660 327 11528ft 194kts
28-Sep-23 09:57 39.642805 -105.056862 328 13957ft 186kts
28-Sep-23 09:58 39.688045 -105.088772 328 16444ft 186kts
28-Sep-23 09:59 39.712359 -105.135550 265 18905ft 163kts
28-Sep-23 10:00 39.710103 -105.193655 264 21271ft 163kts
28-Sep-23 10:01 39.707531 -105.253573 264 23632ft 169kts
28-Sep-23 10:02 39.704839 -105.315149 263 25825ft 175kts
28-Sep-23 10:03 39.702002 -105.378858 263 27964ft 180kts
28-Sep-23 10:04 39.699053 -105.444205 262 29916ft 184kts
28-Sep-23 10:05 39.695478 -105.521723 262 30238ft 244kts
28-Sep-23 10:06 39.691131 -105.615293 262 30300ft 271kts
28-Sep-23 10:07 39.679082 -105.713546 252 30299ft 280kts
28-Sep-23 10:08 39.659589 -105.812374 252 30291ft 285kts
28-Sep-23 10:09 39.639689 -105.912525 252 30294ft 287kts
28-Sep-23 10:10 39.619711 -106.012576 252 30293ft 287kts
28-Sep-23 10:11 39.599535 -106.113121 252 30290ft 288kts
28-Sep-23 10:12 39.579330 -106.213319 252 30273ft 288kts
28-Sep-23 10:13 39.558991 -106.313698 252 30248ft 288kts
28-Sep-23 10:14 39.538535 -106.414173 252 30198ft 289kts
28-Sep-23 10:15 39.517965 -106.514724 252 30190ft 288kts
28-Sep-23 10:16 39.497375 -106.614893 252 30191ft 288kts
28-Sep-23 10:17 39.476657 -106.715202 252 30198ft 288kts
28-Sep-23 10:18 39.455936 -106.815050 252 30199ft 288kts
28-Sep-23 10:19 39.434277 -106.915080 249 30202ft 288kts
28-Sep-23 10:20 39.409652 -107.013733 249 30204ft 288kts
28-Sep-23 10:21 39.384978 -107.112226 249 30206ft 288kts
28-Sep-23 10:22 39.360193 -107.210759 249 30208ft 288kts
28-Sep-23 10:23 39.335346 -107.309145 250 30201ft 289kts
28-Sep-23 10:24 39.310349 -107.407722 249 30156ft 289kts
28-Sep-23 10:25 39.285194 -107.506525 250 30110ft 289kts
28-Sep-23 10:26 39.260023 -107.604994 250 30096ft 288kts
28-Sep-23 10:27 39.234849 -107.703075 249 30100ft 288kts
28-Sep-23 10:28 39.209504 -107.801438 249 30101ft 288kts
28-Sep-23 10:29 39.184120 -107.899560 249 30104ft 288kts
28-Sep-23 10:30 39.158731 -107.997293 249 30107ft 288kts
28-Sep-23 10:31 39.133156 -108.095364 249 30095ft 288kts
28-Sep-23 10:32 39.107619 -108.192940 249 30079ft 288kts
28-Sep-23 10:33 39.081906 -108.290774 250 30069ft 288kts
28-Sep-23 10:34 39.056229 -108.388113 250 30069ft 287kts
28-Sep-23 10:35 39.030395 -108.485647 250 30069ft 288kts
28-Sep-23 10:36 39.004554 -108.582828 250 30068ft 288kts
28-Sep-23 10:37 38.978498 -108.680456 249 30073ft 288kts
28-Sep-23 10:38 38.952461 -108.777633 249 30072ft 288kts
28-Sep-23 10:39 38.926283 -108.874972 249 30072ft 288kts
28-Sep-23 10:40 38.900075 -108.972035 249 30070ft 288kts
28-Sep-23 10:41 38.873648 -109.069525 249 30059ft 288kts
28-Sep-23 10:42 38.847299 -109.166393 249 30044ft 288kts
28-Sep-23 10:43 38.820811 -109.263382 249 30036ft 288kts
28-Sep-23 10:44 38.794266 -109.360235 250 30035ft 288kts
28-Sep-23 10:45 38.767707 -109.456764 250 30035ft 288kts
28-Sep-23 10:46 38.740920 -109.553749 250 30034ft 288kts
28-Sep-23 10:47 38.714249 -109.649978 250 30033ft 286kts
28-Sep-23 10:48 38.687488 -109.746161 249 30038ft 287kts
28-Sep-23 10:49 38.660667 -109.842205 249 30038ft 287kts
28-Sep-23 10:50 38.633706 -109.938403 249 30037ft 287kts
28-Sep-23 10:51 38.606635 -110.034613 249 30036ft 287kts
28-Sep-23 10:52 38.579617 -110.130331 249 30035ft 286kts
28-Sep-23 10:53 38.552528 -110.225918 249 30037ft 286kts
28-Sep-23 10:54 38.525304 -110.321642 249 30040ft 286kts
28-Sep-23 10:55 38.498138 -110.416820 249 30043ft 286kts
28-Sep-23 10:56 38.470807 -110.512233 249 30042ft 285kts
28-Sep-23 10:57 38.443613 -110.606832 249 30042ft 285kts
28-Sep-23 10:58 38.415541 -110.701492 242 30042ft 285kts
28-Sep-23 10:59 38.377007 -110.789564 241 30046ft 285kts
28-Sep-23 11:00 38.338020 -110.877367 241 30045ft 285kts
28-Sep-23 11:01 38.298874 -110.965249 241 30046ft 285kts
28-Sep-23 11:02 38.259799 -111.052735 241 30044ft 284kts
28-Sep-23 11:03 38.220826 -111.139758 241 30044ft 284kts
28-Sep-23 11:04 38.181640 -111.227016 241 30043ft 284kts
28-Sep-23 11:05 38.142428 -111.314095 241 30043ft 284kts
28-Sep-23 11:06 38.103173 -111.401034 241 30065ft 283kts
28-Sep-23 11:07 38.063972 -111.487619 241 30140ft 282kts
28-Sep-23 11:08 38.024694 -111.574142 241 30212ft 282kts
28-Sep-23 11:09 37.985376 -111.660509 241 30237ft 284kts
28-Sep-23 11:10 37.945585 -111.747696 241 30239ft 287kts
28-Sep-23 11:11 37.905544 -111.835185 241 30238ft 287kts
28-Sep-23 11:12 37.865370 -111.922733 241 30238ft 287kts
28-Sep-23 11:13 37.825225 -112.009977 241 30234ft 287kts
28-Sep-23 11:14 37.784879 -112.097428 241 30237ft 286kts
28-Sep-23 11:15 37.744592 -112.184518 241 30237ft 287kts
28-Sep-23 11:16 37.704321 -112.271332 241 30236ft 287kts
28-Sep-23 11:17 37.664310 -112.358876 241 30236ft 287kts
28-Sep-23 11:18 37.624690 -112.446241 241 30235ft 288kts
28-Sep-23 11:19 37.584918 -112.533685 241 30230ft 288kts
28-Sep-23 11:20 37.544887 -112.621472 241 30186ft 289kts
28-Sep-23 11:21 37.504679 -112.709406 241 30144ft 290kts
28-Sep-23 11:22 37.464257 -112.797565 241 30114ft 290kts
28-Sep-23 11:23 37.423876 -112.885392 241 30112ft 290kts
28-Sep-23 11:24 37.383409 -112.973173 241 30117ft 289kts
28-Sep-23 11:25 37.343078 -113.060425 241 30109ft 290kts
28-Sep-23 11:26 37.302482 -113.148000 241 30108ft 289kts
28-Sep-23 11:27 37.261930 -113.235271 241 30101ft 289kts
28-Sep-23 11:28 37.221311 -113.322481 241 30077ft 290kts
28-Sep-23 11:29 37.180562 -113.409761 241 30013ft 291kts
28-Sep-23 11:30 37.139688 -113.496984 241 30005ft 290kts
28-Sep-23 11:31 37.098799 -113.584005 241 30005ft 289kts
28-Sep-23 11:32 37.057907 -113.670869 240 30010ft 290kts
28-Sep-23 11:33 37.016698 -113.758163 241 30010ft 291kts
28-Sep-23 11:34 36.974349 -113.847668 240 29089ft 314kts
28-Sep-23 11:35 36.928645 -113.943889 240 27526ft 328kts
28-Sep-23 11:36 36.882020 -114.041788 240 25942ft 327kts
28-Sep-23 11:37 36.835937 -114.138294 240 24388ft 320kts
28-Sep-23 11:38 36.790671 -114.232821 240 22870ft 315kts
28-Sep-23 11:39 36.723227 -114.294235 198 21351ft 321kts
28-Sep-23 11:40 36.638284 -114.324061 199 19840ft 316kts
28-Sep-23 11:42 36.554860 -114.353649 198 18348ft 309kts
28-Sep-23 11:43 36.473375 -114.382492 198 16889ft 302kts
28-Sep-23 11:44 36.393317 -114.410775 198 15458ft 297kts
28-Sep-23 11:45 36.314816 -114.438446 198 14052ft 291kts
28-Sep-23 11:46 36.265015 -114.503493 251 12823ft 274kts
28-Sep-23 11:47 36.242669 -114.592173 251 11850ft 269kts
28-Sep-23 11:48 36.221102 -114.679859 251 10358ft 254kts
28-Sep-23 11:49 36.202107 -114.759807 251 8819ft 235kts
28-Sep-23 11:50 36.184163 -114.836587 251 7306ft 230kts
28-Sep-23 11:51 36.166529 -114.911454 251 5992ft 216kts
28-Sep-23 11:52 36.150207 -114.982017 253 4969ft 207kts
28-Sep-23 11:53 36.136094 -115.051385 258 3917ft 212kts
28-Sep-23 11:54 36.134557 -115.119834 281 3205ft 180kts
28-Sep-23 11:55 36.113521 -115.148884 202 2695ft 113kts
28-Sep-23 11:56 36.090954 -115.161433 205 2181ft 39kts
28-Sep-23 11:57 36.089510 -115.163948 292 2181ft 10kts
28-Sep-23 11:58 36.084838 -115.167329 205 2181ft 26kts
28-Sep-23 11:59 36.081036 -115.170394 177 2181ft 6kts
28-Sep-23 12:00 36.080691 -115.170639 268 2181ft 0kts
28-Sep-23 12:01 36.080691 -115.170639 268 2181ft 0kts
28-Sep-23 12:02 36.080691 -115.170639 268 2181ft 0kts
28-Sep-23 12:03 36.080691 -115.170639 268 2181ft 0kts

Navigation Log

Ident Type
Flight plan parsing failed, navigation log unavailable